Ag.nikolaos-ii — SV4090 — position and weather

sailwx.info

Track history (hours):
 
Tides and Currents Weather Stations Pressure Air Temp Water Temp Dewpoint Dewpoint Depression Visibility Wind Speed Wind Dir Waves Ship Positions

Ag.nikolaos-ii

Last reported at 2017-Sep-24 21:00 UTC. Time now 2017-Sep-24 21:19 UTC.
Position N 40°46' E 024°18'.

Length 21 m; draft 2 m.

Type: Fishing. MMSI: 239044000.

Date/timePositionNaut miles runAvg speedWind from/ knotsBaromVisibWave heightAir tempDewpointWater temp
2017-Sep-24 21:00N 40°46' E 024°18'4 7.0
2017-Sep-24 20:30N 40°42' E 024°16'0 0.4
2017-Sep-24 20:00N 40°42' E 024°16'0 0.3
2017-Sep-24 19:30N 40°43' E 024°17'0 0.6
2017-Sep-24 18:58N 40°42' E 024°17'0 0.8
2017-Sep-24 18:30N 40°43' E 024°16'0 0.8
2017-Sep-24 18:00N 40°42' E 024°17'0 0.5
2017-Sep-24 17:30N 40°42' E 024°17'0 0.2
2017-Sep-24 17:00N 40°42' E 024°16'0 0.3
2017-Sep-24 16:30N 40°43' E 024°17'3 5.9
2017-Sep-24 16:00N 40°45' E 024°18'4 8.2
2017-Sep-24 15:30N 40°49' E 024°20'2 4.7
2017-Sep-24 15:00N 40°51' E 024°19'0 0.0
2017-Sep-24 14:30N 40°51' E 024°19'0 0.0
2017-Sep-24 14:00N 40°51' E 024°19'0 0.0
2017-Sep-24 13:30N 40°51' E 024°19'0 0.0
2017-Sep-24 13:00N 40°51' E 024°19'0 0.0
2017-Sep-24 12:30N 40°51' E 024°19'0 0.0
2017-Sep-24 12:00N 40°51' E 024°19'0 0.0
2017-Sep-24 11:30N 40°51' E 024°19'0 0.0
2017-Sep-24 11:00N 40°51' E 024°19'0 0.0
2017-Sep-24 10:30N 40°51' E 024°19'0 0.0
2017-Sep-24 10:00N 40°51' E 024°19'0 0.0
2017-Sep-24 09:30N 40°51' E 024°19'0 0.0
2017-Sep-24 09:00N 40°51' E 024°19'0 0.0
2017-Sep-24 08:30N 40°51' E 024°19'0 0.0
2017-Sep-24 08:00N 40°51' E 024°19'0 0.0
2017-Sep-24 07:30N 40°51' E 024°19'0 0.0
2017-Sep-24 07:00N 40°51' E 024°19'0 0.0
2017-Sep-24 06:30N 40°51' E 024°19'0 0.0
2017-Sep-24 06:00N 40°51' E 024°19'0 0.0
2017-Sep-24 05:30N 40°51' E 024°19'0 0.0
2017-Sep-24 05:00N 40°51' E 024°19'0 0.0
2017-Sep-24 04:30N 40°51' E 024°19'0 0.0
2017-Sep-24 04:00N 40°51' E 024°19'0 0.0
2017-Sep-24 03:30N 40°51' E 024°19'0 0.0
2017-Sep-24 03:00N 40°51' E 024°19'0 0.0
2017-Sep-24 02:30N 40°51' E 024°19'0 0.0
2017-Sep-24 02:00N 40°51' E 024°19'1 1.1
2017-Sep-24 01:30N 40°50' E 024°19'4 7.2
2017-Sep-24 01:00N 40°47' E 024°19'4 8.5
2017-Sep-24 00:30N 40°43' E 024°18'4 8.0
2017-Sep-24 00:00N 40°39' E 024°17'0 0.5
2017-Sep-23 23:30N 40°39' E 024°17'0 0.2
2017-Sep-23 23:00N 40°39' E 024°17'1 1.2
2017-Sep-23 22:30N 40°38' E 024°18'0 0.8
2017-Sep-23 22:00N 40°38' E 024°17'0 0.1
2017-Sep-23 21:30N 40°38' E 024°17'0 0.7
2017-Sep-23 21:00N 40°38' E 024°18'1 1.4
2017-Sep-23 20:30N 40°39' E 024°17'0 0.7
2017-Sep-23 20:00N 40°39' E 024°18'12 0.3
2017-Sep-22 02:00N 40°51' E 024°19'0 0.0
2017-Sep-22 01:30N 40°51' E 024°19'0 0.0
2017-Sep-22 01:00N 40°51' E 024°19'0 0.0
2017-Sep-22 00:26N 40°51' E 024°19'0 0.0
2017-Sep-22 00:00N 40°51' E 024°19'0 0.0
2017-Sep-21 23:30N 40°51' E 024°19'0 0.0
2017-Sep-21 23:00N 40°51' E 024°19'0 0.0
2017-Sep-21 22:30N 40°51' E 024°19'0 0.0
2017-Sep-21 22:00N 40°51' E 024°19'0 0.0
2017-Sep-21 21:30N 40°51' E 024°19'0 0.0
2017-Sep-21 20:57N 40°51' E 024°19'0 0.0
2017-Sep-21 20:30N 40°51' E 024°19'0 0.0
2017-Sep-21 20:00N 40°51' E 024°19'0 0.0
2017-Sep-21 19:30N 40°51' E 024°19'0 0.0
2017-Sep-21 19:00N 40°51' E 024°19'0 0.0
2017-Sep-21 18:30N 40°51' E 024°19'0 0.0
2017-Sep-21 17:50N 40°51' E 024°19'0 0.0
2017-Sep-21 17:30N 40°51' E 024°19'0 0.0
2017-Sep-21 17:00N 40°51' E 024°19'0 0.0
2017-Sep-21 16:30N 40°51' E 024°19'0 0.0
2017-Sep-21 16:00N 40°51' E 024°19'0 0.0
2017-Sep-21 15:30N 40°51' E 024°19'0 0.0
2017-Sep-21 15:00N 40°51' E 024°19'0 0.0
2017-Sep-21 14:30N 40°51' E 024°19'0 0.0
2017-Sep-21 14:00N 40°51' E 024°19'0 0.0
2017-Sep-21 08:46N 40°51' E 024°19'0 0.0
2017-Sep-21 08:30N 40°51' E 024°19'0 0.0
2017-Sep-21 08:00N 40°51' E 024°19'0 0.0
2017-Sep-21 07:30N 40°51' E 024°19'0 0.0
2017-Sep-21 07:00N 40°51' E 024°19'0 0.0
2017-Sep-21 06:30N 40°51' E 024°19'0 0.0
2017-Sep-21 06:00N 40°51' E 024°19'0 0.0
2017-Sep-21 05:30N 40°51' E 024°19'0 0.0
2017-Sep-21 05:00N 40°51' E 024°19'0 0.0
2017-Sep-21 04:30N 40°51' E 024°19'0 0.0
2017-Sep-21 04:00N 40°51' E 024°19'0 0.0
2017-Sep-21 03:29N 40°51' E 024°19'0 0.0
2017-Sep-21 03:00N 40°51' E 024°19'0 0.0
2017-Sep-21 02:30N 40°51' E 024°19'0 0.0
2017-Sep-21 02:00N 40°51' E 024°19'0 0.0
2017-Sep-21 01:30N 40°51' E 024°19'0 0.0
2017-Sep-21 01:00N 40°51' E 024°19'0 0.0
2017-Sep-21 00:30N 40°51' E 024°19'0 0.0
2017-Sep-21 00:00N 40°51' E 024°19'0 0.0
2017-Sep-20 23:04N 40°51' E 024°19'0 0.0
2017-Sep-20 23:00N 40°51' E 024°19'0 0.0
2017-Sep-20 22:30N 40°51' E 024°19'0 0.0
2017-Sep-20 22:00N 40°51' E 024°19'0 0.0
2017-Sep-20 21:30N 40°51' E 024°19'0 0.0
2017-Sep-20 21:00N 40°51' E 024°19'0 0.0
2017-Sep-20 20:30N 40°51' E 024°19'0 0.0
2017-Sep-20 20:00N 40°51' E 024°19'0 0.0
2017-Sep-20 19:30N 40°51' E 024°19'0 0.0
2017-Sep-20 19:00N 40°51' E 024°19'1 2.4
2017-Sep-20 18:30N 40°50' E 024°20'4 7.2
2017-Sep-20 18:00N 40°48' E 024°24'0 0.7
2017-Sep-20 17:30N 40°48' E 024°24'0 0.4
2017-Sep-20 17:00N 40°47' E 024°24'2 3.1
2017-Sep-20 16:30N 40°48' E 024°22'4 7.2
2017-Sep-20 16:00N 40°51' E 024°19'0 0.2
2017-Sep-20 15:30N 40°51' E 024°19'0 0.0
2017-Sep-20 15:00N 40°51' E 024°19'0 0.0
2017-Sep-20 14:00N 40°51' E 024°19'0 0.0
2017-Sep-20 13:30N 40°51' E 024°19'0 0.0
2017-Sep-20 13:00N 40°51' E 024°19'0 0.0
2017-Sep-20 12:30N 40°51' E 024°19'0 0.0
2017-Sep-20 12:00N 40°51' E 024°19'0 0.0
2017-Sep-20 11:28N 40°51' E 024°19'0 0.0
2017-Sep-20 11:00N 40°51' E 024°19'0 0.0
2017-Sep-20 10:30N 40°51' E 024°19'0 0.0
2017-Sep-20 10:00N 40°51' E 024°19'0 0.0
2017-Sep-20 09:30N 40°51' E 024°19'0 0.0
2017-Sep-20 09:00N 40°51' E 024°19'0 0.0
2017-Sep-20 08:30N 40°51' E 024°19'0 0.0
2017-Sep-20 08:00N 40°51' E 024°19'0 0.0
2017-Sep-20 07:30N 40°51' E 024°19'0 0.0
2017-Sep-20 07:00N 40°51' E 024°19'0 0.0
2017-Sep-20 06:30N 40°51' E 024°19'0 0.0
2017-Sep-20 06:00N 40°51' E 024°19'0 0.0
2017-Sep-20 05:30N 40°51' E 024°19'0 0.0
2017-Sep-20 05:00N 40°51' E 024°19'0 0.0
2017-Sep-20 04:30N 40°51' E 024°19'0 0.0
2017-Sep-20 04:00N 40°51' E 024°19'0 0.0
2017-Sep-20 03:30N 40°51' E 024°19'0 0.0
2017-Sep-20 03:00N 40°51' E 024°19'0 0.0
2017-Sep-20 02:30N 40°51' E 024°19'0 0.0
2017-Sep-20 02:00N 40°51' E 024°19'0 0.0
2017-Sep-20 01:30N 40°51' E 024°19'0 0.0
2017-Sep-20 01:00N 40°51' E 024°19'0 0.0
2017-Sep-20 00:30N 40°51' E 024°19'0 0.0
2017-Sep-20 00:00N 40°51' E 024°19'0 0.0
2017-Sep-19 23:30N 40°51' E 024°19'0 0.0
2017-Sep-19 23:00N 40°51' E 024°19'0 0.1
2017-Sep-19 22:30N 40°51' E 024°19'3 6.9
2017-Sep-19 22:00N 40°47' E 024°19'5 9.3
2017-Sep-19 21:30N 40°44' E 024°15'4 7.7
2017-Sep-19 21:00N 40°40' E 024°13'1 0.3
2017-Sep-19 19:00N 40°41' E 024°13'0 0.3
2017-Sep-19 18:30N 40°41' E 024°13'0 0.5
2017-Sep-19 18:00N 40°41' E 024°14'0 0.5
2017-Sep-19 17:30N 40°41' E 024°14'2 4.5
2017-Sep-19 17:00N 40°42' E 024°16'3 6.3
2017-Sep-19 16:30N 40°45' E 024°18'4 7.4
2017-Sep-19 16:00N 40°48' E 024°21'3 6.3
2017-Sep-19 15:30N 40°51' E 024°19'0 0.1
2017-Sep-19 15:00N 40°51' E 024°19'0 0.0
2017-Sep-19 14:30N 40°51' E 024°19'0 0.0
2017-Sep-19 14:00N 40°51' E 024°19'0 0.0
2017-Sep-19 13:30N 40°51' E 024°19'0 0.0
2017-Sep-19 13:00N 40°51' E 024°19'0 0.0
2017-Sep-19 12:30N 40°51' E 024°19'0 0.0
2017-Sep-19 12:00N 40°51' E 024°19'0 0.0
2017-Sep-19 11:30N 40°51' E 024°19'0 0.0
2017-Sep-19 11:00N 40°51' E 024°19'0 0.0
2017-Sep-19 10:30N 40°51' E 024°19'0 0.0
2017-Sep-19 10:00N 40°51' E 024°19'0 0.0
2017-Sep-19 09:30N 40°51' E 024°19'0 0.0
2017-Sep-19 09:00N 40°51' E 024°19'0 0.0
2017-Sep-19 08:30N 40°51' E 024°19'0 0.0
2017-Sep-19 08:00N 40°51' E 024°19'0 0.0
2017-Sep-19 07:30N 40°51' E 024°19'0 0.0
2017-Sep-19 07:00N 40°51' E 024°19'0 0.0
2017-Sep-19 06:30N 40°51' E 024°19'0 0.0
2017-Sep-19 06:00N 40°51' E 024°19'0 0.0
2017-Sep-19 05:30N 40°51' E 024°19'0 0.0
2017-Sep-19 05:00N 40°51' E 024°19'0 0.0
2017-Sep-19 04:30N 40°51' E 024°19'0 0.0
2017-Sep-19 04:00N 40°51' E 024°19'0 0.0
2017-Sep-19 03:30N 40°51' E 024°19'0 0.0
2017-Sep-19 03:00N 40°51' E 024°19'0 0.0
2017-Sep-19 02:30N 40°51' E 024°19'0 0.0
2017-Sep-19 02:00N 40°51' E 024°19'0 0.0
2017-Sep-19 01:30N 40°51' E 024°19'0 0.0
2017-Sep-19 01:00N 40°51' E 024°19'0 0.0
2017-Sep-19 00:30N 40°51' E 024°19'0 0.0
2017-Sep-19 00:00N 40°51' E 024°19'0 0.0
2017-Sep-18 23:30N 40°51' E 024°19'0 0.0
2017-Sep-18 23:00N 40°51' E 024°19'0 0.0
2017-Sep-18 22:30N 40°51' E 024°19'0 0.0
2017-Sep-18 22:00N 40°51' E 024°19'2 4.6
2017-Sep-18 21:30N 40°49' E 024°20'5 9.1
2017-Sep-18 21:00N 40°45' E 024°16'3 6.4
2017-Sep-18 20:30N 40°42' E 024°14'0 0.3
2017-Sep-18 20:00N 40°42' E 024°14'0 0.1
2017-Sep-18 19:30N 40°42' E 024°14'0 0.9
2017-Sep-18 19:00N 40°42' E 024°15'0 0.4
2017-Sep-18 18:30N 40°42' E 024°15'0 0.5
2017-Sep-18 18:00N 40°42' E 024°14'0 0.7
2017-Sep-18 17:30N 40°42' E 024°15'0 0.4
2017-Sep-18 17:00N 40°42' E 024°15'2 3.2
2017-Sep-18 16:30N 40°44' E 024°15'4 7.7
2017-Sep-18 16:00N 40°47' E 024°18'4 6.9
2017-Sep-18 15:30N 40°50' E 024°21'2 3.5
2017-Sep-18 15:00N 40°51' E 024°19'0 0.0
2017-Sep-18 14:30N 40°51' E 024°19'0 0.0
2017-Sep-18 14:00N 40°51' E 024°19'0 0.0
2017-Sep-18 13:30N 40°51' E 024°19'0 0.0
2017-Sep-18 13:00N 40°51' E 024°19'0 0.0
2017-Sep-18 12:30N 40°51' E 024°19'0 0.0
2017-Sep-18 12:00N 40°51' E 024°19'0 0.0
2017-Sep-18 11:30N 40°51' E 024°19'0 0.0
2017-Sep-18 11:00N 40°51' E 024°19'0 0.0
2017-Sep-18 10:30N 40°51' E 024°19'0 0.0
2017-Sep-18 10:00N 40°51' E 024°19'0 0.0
2017-Sep-18 09:30N 40°51' E 024°19'0 0.0
2017-Sep-18 09:00N 40°51' E 024°19'0 0.0
2017-Sep-18 08:30N 40°51' E 024°19'0 0.0
2017-Sep-18 08:00N 40°51' E 024°19'0 0.0
2017-Sep-18 07:30N 40°51' E 024°19'0 0.0
2017-Sep-18 07:00N 40°51' E 024°19'0 0.0
2017-Sep-18 06:30N 40°51' E 024°19'0 0.0
2017-Sep-18 06:00N 40°51' E 024°19'0 0.0
2017-Sep-18 05:30N 40°51' E 024°19'0 0.0
2017-Sep-18 05:00N 40°51' E 024°19'0 0.0
2017-Sep-18 04:30N 40°51' E 024°19'0 0.0
2017-Sep-18 04:00N 40°51' E 024°19'0 0.0
2017-Sep-18 03:30N 40°51' E 024°19'0 0.0
2017-Sep-18 03:00N 40°51' E 024°19'0 0.0
2017-Sep-18 02:30N 40°51' E 024°19'0 0.0
2017-Sep-18 02:00N 40°51' E 024°19'0 0.0
2017-Sep-18 01:30N 40°51' E 024°19'0 0.0
2017-Sep-18 01:00N 40°51' E 024°19'0 0.0
2017-Sep-18 00:30N 40°51' E 024°19'0 0.0
2017-Sep-18 00:00N 40°51' E 024°19'0 0.0
2017-Sep-17 23:30N 40°51' E 024°19'0 0.0
2017-Sep-17 23:00N 40°51' E 024°19'0 0.0
2017-Sep-17 22:30N 40°51' E 024°19'0 0.0
2017-Sep-17 22:00N 40°51' E 024°19'0 0.6
2017-Sep-17 21:30N 40°51' E 024°19'4 7.1
2017-Sep-17 21:00N 40°47' E 024°18'5 9.2
2017-Sep-17 20:30N 40°43' E 024°15'5 9.5
2017-Sep-17 20:00N 40°39' E 024°12'2 3.3
2017-Sep-17 19:30N 40°38' E 024°11'0 0.3
2017-Sep-17 19:00N 40°38' E 024°11'0 0.7
2017-Sep-17 18:30N 40°37' E 024°11'0 0.6
2017-Sep-17 18:00N 40°38' E 024°11'0 0.6
2017-Sep-17 17:30N 40°38' E 024°11'0 0.6
2017-Sep-17 17:00N 40°37' E 024°11'3 6.1
2017-Sep-17 16:30N 40°35' E 024°08'5 9.1
2017-Sep-17 16:00N 40°32' E 024°03'5 9.1
2017-Sep-17 15:30N 40°29' E 023°59'4 8.8
2017-Sep-17 15:00N 40°26' E 023°55'2 4.6
2017-Sep-17 14:30N 40°24' E 023°54'0 0.0
2017-Sep-17 14:00N 40°24' E 023°54'0 0.0
2017-Sep-17 13:30N 40°24' E 023°54'0 0.0
2017-Sep-17 13:00N 40°24' E 023°54'0 0.0
2017-Sep-17 12:30N 40°24' E 023°54'0 0.0
2017-Sep-17 12:00N 40°24' E 023°54'0 0.0
2017-Sep-17 11:30N 40°24' E 023°54'0 0.0
2017-Sep-17 11:00N 40°24' E 023°54'0 0.0
2017-Sep-17 10:30N 40°24' E 023°54'0 0.0
2017-Sep-17 10:00N 40°24' E 023°54'0 0.0
2017-Sep-17 09:30N 40°24' E 023°54'0 0.0
2017-Sep-17 09:00N 40°24' E 023°54'0 0.0
2017-Sep-17 08:30N 40°24' E 023°54'0 0.0
2017-Sep-17 08:00N 40°24' E 023°54'0 0.0
2017-Sep-17 07:24N 40°24' E 023°54'0 0.0
2017-Sep-17 06:59N 40°24' E 023°54'0 0.0
2017-Sep-17 06:30N 40°24' E 023°54'0 0.0
2017-Sep-17 06:00N 40°24' E 023°54'0 0.0
2017-Sep-17 05:30N 40°24' E 023°54'0 0.0
2017-Sep-17 04:57N 40°24' E 023°54'0 0.0
2017-Sep-17 04:30N 40°24' E 023°54'0 0.3
2017-Sep-17 04:00N 40°24' E 023°53'5 9.0
2017-Sep-17 03:30N 40°27' E 023°58'4 7.5
2017-Sep-17 03:00N 40°26' E 024°03'2 3.3
2017-Sep-17 02:30N 40°25' E 024°05'0 0.2
2017-Sep-17 02:00N 40°25' E 024°05'0 0.3
2017-Sep-17 01:30N 40°25' E 024°05'0 0.6
2017-Sep-17 01:00N 40°25' E 024°05'0 0.8
2017-Sep-17 00:30N 40°25' E 024°05'0 0.5
2017-Sep-16 23:57N 40°24' E 024°05'0 0.4
2017-Sep-16 23:30N 40°24' E 024°05'0 0.9
2017-Sep-16 23:00N 40°25' E 024°05'0 0.3
2017-Sep-16 22:30N 40°25' E 024°05'0 0.1
2017-Sep-16 22:00N 40°25' E 024°05'0 0.8
2017-Sep-16 21:30N 40°24' E 024°05'0 0.1
2017-Sep-16 21:00N 40°24' E 024°05'0 0.2
2017-Sep-16 20:30N 40°24' E 024°05'1 1.1
2017-Sep-16 20:00N 40°24' E 024°05'0 0.3
2017-Sep-16 19:30N 40°24' E 024°05'0 0.9
2017-Sep-16 19:00N 40°24' E 024°06'0 0.8
2017-Sep-16 18:30N 40°25' E 024°06'3 5.1
2017-Sep-16 18:00N 40°26' E 024°09'2 4.1
2017-Sep-16 17:30N 40°26' E 024°06'1 2.8
2017-Sep-16 17:00N 40°27' E 024°04'4 7.8
2017-Sep-16 16:30N 40°27' E 023°59'4 8.8
2017-Sep-16 16:00N 40°24' E 023°55'1 2.2
2017-Sep-16 15:30N 40°24' E 023°54'0 0.0
2017-Sep-16 15:00N 40°24' E 023°54'0 0.0
2017-Sep-16 14:30N 40°24' E 023°54'0 0.0
2017-Sep-16 14:00N 40°24' E 023°54'0 0.0
2017-Sep-16 13:30N 40°24' E 023°54'0 0.0
2017-Sep-16 13:00N 40°24' E 023°54'0 0.0
2017-Sep-16 12:30N 40°24' E 023°54'0 0.0
2017-Sep-16 12:00N 40°24' E 023°54'0 0.0
2017-Sep-16 11:30N 40°24' E 023°54'0 0.0
2017-Sep-16 11:00N 40°24' E 023°54'0 0.0
2017-Sep-16 10:30N 40°24' E 023°54'0 0.0
2017-Sep-16 10:00N 40°24' E 023°54'0 0.0
2017-Sep-16 08:31N 40°24' E 023°54'0 0.0
2017-Sep-16 08:30N 40°24' E 023°54'0 0.0
2017-Sep-16 06:12N 40°24' E 023°54'0 0.0
2017-Sep-16 06:00N 40°24' E 023°54'0 0.0
2017-Sep-16 04:49N 40°24' E 023°54'0 0.0
2017-Sep-16 04:29N 40°24' E 023°54'0 0.0
2017-Sep-16 03:45N 40°24' E 023°54'0 0.0
2017-Sep-16 03:30N 40°24' E 023°54'0 0.0
2017-Sep-15 23:31N 40°24' E 023°54'0 0.0
2017-Sep-15 23:27N 40°24' E 023°54'0 0.0
2017-Sep-15 23:00N 40°24' E 023°54'0 0.0
2017-Sep-15 22:30N 40°24' E 023°54'2 4.8
2017-Sep-15 22:00N 40°25' E 023°56'4 8.4
2017-Sep-15 21:30N 40°28' E 024°00'4 7.9
2017-Sep-15 21:00N 40°26' E 024°05'0 0.1
2017-Sep-15 20:30N 40°27' E 024°05'0 0.1
2017-Sep-15 20:00N 40°27' E 024°05'0 0.2
2017-Sep-15 19:30N 40°26' E 024°06'0 0.4
2017-Sep-15 19:00N 40°26' E 024°05'0 0.1
2017-Sep-15 18:08N 40°26' E 024°06'0 2.1
2017-Sep-15 18:00N 40°26' E 024°05'1 1.1
2017-Sep-15 17:30N 40°26' E 024°05'1 2.5
2017-Sep-15 17:00N 40°27' E 024°03'3 6.8
2017-Sep-15 16:30N 40°27' E 023°59'5 9.6
2017-Sep-15 16:00N 40°24' E 023°54'0 0.9
2017-Sep-15 15:30N 40°24' E 023°54'0 0.0
2017-Sep-15 15:00N 40°24' E 023°54'0 0.0
2017-Sep-15 14:30N 40°24' E 023°54'0 0.0
2017-Sep-15 14:00N 40°24' E 023°54'0 0.0
2017-Sep-15 13:30N 40°24' E 023°54'0 0.0
2017-Sep-15 13:00N 40°24' E 023°54'0 0.0
2017-Sep-15 12:30N 40°24' E 023°54'0 0.0
2017-Sep-15 12:00N 40°24' E 023°54'0 0.0
2017-Sep-15 11:30N 40°24' E 023°54'0 0.0
2017-Sep-15 11:00N 40°24' E 023°54'0 0.0
2017-Sep-15 10:30N 40°24' E 023°54'0 0.0
2017-Sep-15 10:00N 40°24' E 023°54'0 0.0
2017-Sep-15 09:30N 40°24' E 023°54'0 0.0
2017-Sep-15 08:47N 40°24' E 023°54'0 0.0
2017-Sep-15 08:29N 40°24' E 023°54'0 0.0
2017-Sep-15 06:46N 40°24' E 023°54'0 0.0
2017-Sep-15 06:28N 40°24' E 023°54'0 0.0
2017-Sep-15 04:48N 40°24' E 023°54'0 0.0
2017-Sep-15 03:21N 40°24' E 023°54'0 0.0
2017-Sep-15 02:22N 40°24' E 023°54'0 0.0
2017-Sep-15 01:57N 40°24' E 023°54'0 0.0
2017-Sep-15 01:27N 40°24' E 023°54'0 0.0
2017-Sep-15 00:54N 40°24' E 023°54'0 0.0
2017-Sep-15 00:29N 40°24' E 023°54'0 0.0
2017-Sep-14 23:20N 40°24' E 023°54'0 0.0
2017-Sep-14 23:00N 40°24' E 023°54'0 0.0
2017-Sep-14 22:30N 40°24' E 023°54'0 0.1
2017-Sep-14 22:00N 40°24' E 023°54'4 8.3
2017-Sep-14 21:30N 40°27' E 023°56'5 9.3
2017-Sep-14 21:00N 40°32' E 023°59'  
Track history (hours):
 
Tides and Currents Weather Stations Pressure Air Temp Water Temp Dewpoint Dewpoint Depression Visibility Wind Speed Wind Dir Waves Ship Positions

Ag.nikolaos-ii

Last reported at 2017-Sep-24 21:00 UTC. Time now 2017-Sep-24 21:19 UTC.
Position N 40°46' E 024°18'.

Length 21 m; draft 2 m.

Type: Fishing. MMSI: 239044000.

Date/timePositionNaut miles runAvg speedWind from/ knotsBaromVisibWave heightAir tempDewpointWater temp
2017-Sep-24 21:00N 40°46' E 024°18'4 7.0
2017-Sep-24 20:30N 40°42' E 024°16'0 0.4
2017-Sep-24 20:00N 40°42' E 024°16'0 0.3
2017-Sep-24 19:30N 40°43' E 024°17'0 0.6
2017-Sep-24 18:58N 40°42' E 024°17'0 0.8
2017-Sep-24 18:30N 40°43' E 024°16'0 0.8
2017-Sep-24 18:00N 40°42' E 024°17'0 0.5
2017-Sep-24 17:30N 40°42' E 024°17'0 0.2
2017-Sep-24 17:00N 40°42' E 024°16'0 0.3
2017-Sep-24 16:30N 40°43' E 024°17'3 5.9
2017-Sep-24 16:00N 40°45' E 024°18'4 8.2
2017-Sep-24 15:30N 40°49' E 024°20'2 4.7
2017-Sep-24 15:00N 40°51' E 024°19'0 0.0
2017-Sep-24 14:30N 40°51' E 024°19'0 0.0
2017-Sep-24 14:00N 40°51' E 024°19'0 0.0
2017-Sep-24 13:30N 40°51' E 024°19'0 0.0
2017-Sep-24 13:00N 40°51' E 024°19'0 0.0
2017-Sep-24 12:30N 40°51' E 024°19'0 0.0
2017-Sep-24 12:00N 40°51' E 024°19'0 0.0
2017-Sep-24 11:30N 40°51' E 024°19'0 0.0
2017-Sep-24 11:00N 40°51' E 024°19'0 0.0
2017-Sep-24 10:30N 40°51' E 024°19'0 0.0
2017-Sep-24 10:00N 40°51' E 024°19'0 0.0
2017-Sep-24 09:30N 40°51' E 024°19'0 0.0
2017-Sep-24 09:00N 40°51' E 024°19'0 0.0
2017-Sep-24 08:30N 40°51' E 024°19'0 0.0
2017-Sep-24 08:00N 40°51' E 024°19'0 0.0
2017-Sep-24 07:30N 40°51' E 024°19'0 0.0
2017-Sep-24 07:00N 40°51' E 024°19'0 0.0
2017-Sep-24 06:30N 40°51' E 024°19'0 0.0
2017-Sep-24 06:00N 40°51' E 024°19'0 0.0
2017-Sep-24 05:30N 40°51' E 024°19'0 0.0
2017-Sep-24 05:00N 40°51' E 024°19'0 0.0
2017-Sep-24 04:30N 40°51' E 024°19'0 0.0
2017-Sep-24 04:00N 40°51' E 024°19'0 0.0
2017-Sep-24 03:30N 40°51' E 024°19'0 0.0
2017-Sep-24 03:00N 40°51' E 024°19'0 0.0
2017-Sep-24 02:30N 40°51' E 024°19'0 0.0
2017-Sep-24 02:00N 40°51' E 024°19'1 1.1
2017-Sep-24 01:30N 40°50' E 024°19'4 7.2
2017-Sep-24 01:00N 40°47' E 024°19'4 8.5
2017-Sep-24 00:30N 40°43' E 024°18'4 8.0
2017-Sep-24 00:00N 40°39' E 024°17'0 0.5
2017-Sep-23 23:30N 40°39' E 024°17'0 0.2
2017-Sep-23 23:00N 40°39' E 024°17'1 1.2
2017-Sep-23 22:30N 40°38' E 024°18'0 0.8
2017-Sep-23 22:00N 40°38' E 024°17'0 0.1
2017-Sep-23 21:30N 40°38' E 024°17'0 0.7
2017-Sep-23 21:00N 40°38' E 024°18'1 1.4
2017-Sep-23 20:30N 40°39' E 024°17'0 0.7
2017-Sep-23 20:00N 40°39' E 024°18'12 0.3
2017-Sep-22 02:00N 40°51' E 024°19'0 0.0
2017-Sep-22 01:30N 40°51' E 024°19'0 0.0
2017-Sep-22 01:00N 40°51' E 024°19'0 0.0
2017-Sep-22 00:26N 40°51' E 024°19'0 0.0
2017-Sep-22 00:00N 40°51' E 024°19'0 0.0
2017-Sep-21 23:30N 40°51' E 024°19'0 0.0
2017-Sep-21 23:00N 40°51' E 024°19'0 0.0
2017-Sep-21 22:30N 40°51' E 024°19'0 0.0
2017-Sep-21 22:00N 40°51' E 024°19'0 0.0
2017-Sep-21 21:30N 40°51' E 024°19'0 0.0
2017-Sep-21 20:57N 40°51' E 024°19'0 0.0
2017-Sep-21 20:30N 40°51' E 024°19'0 0.0
2017-Sep-21 20:00N 40°51' E 024°19'0 0.0
2017-Sep-21 19:30N 40°51' E 024°19'0 0.0
2017-Sep-21 19:00N 40°51' E 024°19'0 0.0
2017-Sep-21 18:30N 40°51' E 024°19'0 0.0
2017-Sep-21 17:50N 40°51' E 024°19'0 0.0
2017-Sep-21 17:30N 40°51' E 024°19'0 0.0
2017-Sep-21 17:00N 40°51' E 024°19'0 0.0
2017-Sep-21 16:30N 40°51' E 024°19'0 0.0
2017-Sep-21 16:00N 40°51' E 024°19'0 0.0
2017-Sep-21 15:30N 40°51' E 024°19'0 0.0
2017-Sep-21 15:00N 40°51' E 024°19'0 0.0
2017-Sep-21 14:30N 40°51' E 024°19'0 0.0
2017-Sep-21 14:00N 40°51' E 024°19'0 0.0
2017-Sep-21 08:46N 40°51' E 024°19'0 0.0
2017-Sep-21 08:30N 40°51' E 024°19'0 0.0
2017-Sep-21 08:00N 40°51' E 024°19'0 0.0
2017-Sep-21 07:30N 40°51' E 024°19'0 0.0
2017-Sep-21 07:00N 40°51' E 024°19'0 0.0
2017-Sep-21 06:30N 40°51' E 024°19'0 0.0
2017-Sep-21 06:00N 40°51' E 024°19'0 0.0
2017-Sep-21 05:30N 40°51' E 024°19'0 0.0
2017-Sep-21 05:00N 40°51' E 024°19'0 0.0
2017-Sep-21 04:30N 40°51' E 024°19'0 0.0
2017-Sep-21 04:00N 40°51' E 024°19'0 0.0
2017-Sep-21 03:29N 40°51' E 024°19'0 0.0
2017-Sep-21 03:00N 40°51' E 024°19'0 0.0
2017-Sep-21 02:30N 40°51' E 024°19'0 0.0
2017-Sep-21 02:00N 40°51' E 024°19'0 0.0
2017-Sep-21 01:30N 40°51' E 024°19'0 0.0
2017-Sep-21 01:00N 40°51' E 024°19'0 0.0
2017-Sep-21 00:30N 40°51' E 024°19'0 0.0
2017-Sep-21 00:00N 40°51' E 024°19'0 0.0
2017-Sep-20 23:04N 40°51' E 024°19'0 0.0
2017-Sep-20 23:00N 40°51' E 024°19'0 0.0
2017-Sep-20 22:30N 40°51' E 024°19'0 0.0
2017-Sep-20 22:00N 40°51' E 024°19'0 0.0
2017-Sep-20 21:30N 40°51' E 024°19'0 0.0
2017-Sep-20 21:00N 40°51' E 024°19'0 0.0
2017-Sep-20 20:30N 40°51' E 024°19'0 0.0
2017-Sep-20 20:00N 40°51' E 024°19'0 0.0
2017-Sep-20 19:30N 40°51' E 024°19'0 0.0
2017-Sep-20 19:00N 40°51' E 024°19'1 2.4
2017-Sep-20 18:30N 40°50' E 024°20'4 7.2
2017-Sep-20 18:00N 40°48' E 024°24'0 0.7
2017-Sep-20 17:30N 40°48' E 024°24'0 0.4
2017-Sep-20 17:00N 40°47' E 024°24'2 3.1
2017-Sep-20 16:30N 40°48' E 024°22'4 7.2
2017-Sep-20 16:00N 40°51' E 024°19'0 0.2
2017-Sep-20 15:30N 40°51' E 024°19'0 0.0
2017-Sep-20 15:00N 40°51' E 024°19'0 0.0
2017-Sep-20 14:00N 40°51' E 024°19'0 0.0
2017-Sep-20 13:30N 40°51' E 024°19'0 0.0
2017-Sep-20 13:00N 40°51' E 024°19'0 0.0
2017-Sep-20 12:30N 40°51' E 024°19'0 0.0
2017-Sep-20 12:00N 40°51' E 024°19'0 0.0
2017-Sep-20 11:28N 40°51' E 024°19'0 0.0
2017-Sep-20 11:00N 40°51' E 024°19'0 0.0
2017-Sep-20 10:30N 40°51' E 024°19'0 0.0
2017-Sep-20 10:00N 40°51' E 024°19'0 0.0
2017-Sep-20 09:30N 40°51' E 024°19'0 0.0
2017-Sep-20 09:00N 40°51' E 024°19'0 0.0
2017-Sep-20 08:30N 40°51' E 024°19'0 0.0
2017-Sep-20 08:00N 40°51' E 024°19'0 0.0
2017-Sep-20 07:30N 40°51' E 024°19'0 0.0
2017-Sep-20 07:00N 40°51' E 024°19'0 0.0
2017-Sep-20 06:30N 40°51' E 024°19'0 0.0
2017-Sep-20 06:00N 40°51' E 024°19'0 0.0
2017-Sep-20 05:30N 40°51' E 024°19'0 0.0
2017-Sep-20 05:00N 40°51' E 024°19'0 0.0
2017-Sep-20 04:30N 40°51' E 024°19'0 0.0
2017-Sep-20 04:00N 40°51' E 024°19'0 0.0
2017-Sep-20 03:30N 40°51' E 024°19'0 0.0
2017-Sep-20 03:00N 40°51' E 024°19'0 0.0
2017-Sep-20 02:30N 40°51' E 024°19'0 0.0
2017-Sep-20 02:00N 40°51' E 024°19'0 0.0
2017-Sep-20 01:30N 40°51' E 024°19'0 0.0
2017-Sep-20 01:00N 40°51' E 024°19'0 0.0
2017-Sep-20 00:30N 40°51' E 024°19'0 0.0
2017-Sep-20 00:00N 40°51' E 024°19'0 0.0
2017-Sep-19 23:30N 40°51' E 024°19'0 0.0
2017-Sep-19 23:00N 40°51' E 024°19'0 0.1
2017-Sep-19 22:30N 40°51' E 024°19'3 6.9
2017-Sep-19 22:00N 40°47' E 024°19'5 9.3
2017-Sep-19 21:30N 40°44' E 024°15'4 7.7
2017-Sep-19 21:00N 40°40' E 024°13'1 0.3
2017-Sep-19 19:00N 40°41' E 024°13'0 0.3
2017-Sep-19 18:30N 40°41' E 024°13'0 0.5
2017-Sep-19 18:00N 40°41' E 024°14'0 0.5
2017-Sep-19 17:30N 40°41' E 024°14'2 4.5
2017-Sep-19 17:00N 40°42' E 024°16'3 6.3
2017-Sep-19 16:30N 40°45' E 024°18'4 7.4
2017-Sep-19 16:00N 40°48' E 024°21'3 6.3
2017-Sep-19 15:30N 40°51' E 024°19'0 0.1
2017-Sep-19 15:00N 40°51' E 024°19'0 0.0
2017-Sep-19 14:30N 40°51' E 024°19'0 0.0
2017-Sep-19 14:00N 40°51' E 024°19'0 0.0
2017-Sep-19 13:30N 40°51' E 024°19'0 0.0
2017-Sep-19 13:00N 40°51' E 024°19'0 0.0
2017-Sep-19 12:30N 40°51' E 024°19'0 0.0
2017-Sep-19 12:00N 40°51' E 024°19'0 0.0
2017-Sep-19 11:30N 40°51' E 024°19'0 0.0
2017-Sep-19 11:00N 40°51' E 024°19'0 0.0
2017-Sep-19 10:30N 40°51' E 024°19'0 0.0
2017-Sep-19 10:00N 40°51' E 024°19'0 0.0
2017-Sep-19 09:30N 40°51' E 024°19'0 0.0
2017-Sep-19 09:00N 40°51' E 024°19'0 0.0
2017-Sep-19 08:30N 40°51' E 024°19'0 0.0
2017-Sep-19 08:00N 40°51' E 024°19'0 0.0
2017-Sep-19 07:30N 40°51' E 024°19'0 0.0
2017-Sep-19 07:00N 40°51' E 024°19'0 0.0
2017-Sep-19 06:30N 40°51' E 024°19'0 0.0
2017-Sep-19 06:00N 40°51' E 024°19'0 0.0
2017-Sep-19 05:30N 40°51' E 024°19'0 0.0
2017-Sep-19 05:00N 40°51' E 024°19'0 0.0
2017-Sep-19 04:30N 40°51' E 024°19'0 0.0
2017-Sep-19 04:00N 40°51' E 024°19'0 0.0
2017-Sep-19 03:30N 40°51' E 024°19'0 0.0
2017-Sep-19 03:00N 40°51' E 024°19'0 0.0
2017-Sep-19 02:30N 40°51' E 024°19'0 0.0
2017-Sep-19 02:00N 40°51' E 024°19'0 0.0
2017-Sep-19 01:30N 40°51' E 024°19'0 0.0
2017-Sep-19 01:00N 40°51' E 024°19'0 0.0
2017-Sep-19 00:30N 40°51' E 024°19'0 0.0
2017-Sep-19 00:00N 40°51' E 024°19'0 0.0
2017-Sep-18 23:30N 40°51' E 024°19'0 0.0
2017-Sep-18 23:00N 40°51' E 024°19'0 0.0
2017-Sep-18 22:30N 40°51' E 024°19'0 0.0
2017-Sep-18 22:00N 40°51' E 024°19'2 4.6
2017-Sep-18 21:30N 40°49' E 024°20'5 9.1
2017-Sep-18 21:00N 40°45' E 024°16'3 6.4
2017-Sep-18 20:30N 40°42' E 024°14'0 0.3
2017-Sep-18 20:00N 40°42' E 024°14'0 0.1
2017-Sep-18 19:30N 40°42' E 024°14'0 0.9
2017-Sep-18 19:00N 40°42' E 024°15'0 0.4
2017-Sep-18 18:30N 40°42' E 024°15'0 0.5
2017-Sep-18 18:00N 40°42' E 024°14'0 0.7
2017-Sep-18 17:30N 40°42' E 024°15'0 0.4
2017-Sep-18 17:00N 40°42' E 024°15'2 3.2
2017-Sep-18 16:30N 40°44' E 024°15'4 7.7
2017-Sep-18 16:00N 40°47' E 024°18'4 6.9
2017-Sep-18 15:30N 40°50' E 024°21'2 3.5
2017-Sep-18 15:00N 40°51' E 024°19'0 0.0
2017-Sep-18 14:30N 40°51' E 024°19'0 0.0
2017-Sep-18 14:00N 40°51' E 024°19'0 0.0
2017-Sep-18 13:30N 40°51' E 024°19'0 0.0
2017-Sep-18 13:00N 40°51' E 024°19'0 0.0
2017-Sep-18 12:30N 40°51' E 024°19'0 0.0
2017-Sep-18 12:00N 40°51' E 024°19'0 0.0
2017-Sep-18 11:30N 40°51' E 024°19'0 0.0
2017-Sep-18 11:00N 40°51' E 024°19'0 0.0
2017-Sep-18 10:30N 40°51' E 024°19'0 0.0
2017-Sep-18 10:00N 40°51' E 024°19'0 0.0
2017-Sep-18 09:30N 40°51' E 024°19'0 0.0
2017-Sep-18 09:00N 40°51' E 024°19'0 0.0
2017-Sep-18 08:30N 40°51' E 024°19'0 0.0
2017-Sep-18 08:00N 40°51' E 024°19'0 0.0
2017-Sep-18 07:30N 40°51' E 024°19'0 0.0
2017-Sep-18 07:00N 40°51' E 024°19'0 0.0
2017-Sep-18 06:30N 40°51' E 024°19'0 0.0
2017-Sep-18 06:00N 40°51' E 024°19'0 0.0
2017-Sep-18 05:30N 40°51' E 024°19'0 0.0
2017-Sep-18 05:00N 40°51' E 024°19'0 0.0
2017-Sep-18 04:30N 40°51' E 024°19'0 0.0
2017-Sep-18 04:00N 40°51' E 024°19'0 0.0
2017-Sep-18 03:30N 40°51' E 024°19'0 0.0
2017-Sep-18 03:00N 40°51' E 024°19'0 0.0
2017-Sep-18 02:30N 40°51' E 024°19'0 0.0
2017-Sep-18 02:00N 40°51' E 024°19'0 0.0
2017-Sep-18 01:30N 40°51' E 024°19'0 0.0
2017-Sep-18 01:00N 40°51' E 024°19'0 0.0
2017-Sep-18 00:30N 40°51' E 024°19'0 0.0
2017-Sep-18 00:00N 40°51' E 024°19'0 0.0
2017-Sep-17 23:30N 40°51' E 024°19'0 0.0
2017-Sep-17 23:00N 40°51' E 024°19'0 0.0
2017-Sep-17 22:30N 40°51' E 024°19'0 0.0
2017-Sep-17 22:00N 40°51' E 024°19'0 0.6
2017-Sep-17 21:30N 40°51' E 024°19'4 7.1
2017-Sep-17 21:00N 40°47' E 024°18'5 9.2
2017-Sep-17 20:30N 40°43' E 024°15'5 9.5
2017-Sep-17 20:00N 40°39' E 024°12'2 3.3
2017-Sep-17 19:30N 40°38' E 024°11'0 0.3
2017-Sep-17 19:00N 40°38' E 024°11'0 0.7
2017-Sep-17 18:30N 40°37' E 024°11'0 0.6
2017-Sep-17 18:00N 40°38' E 024°11'0 0.6
2017-Sep-17 17:30N 40°38' E 024°11'0 0.6
2017-Sep-17 17:00N 40°37' E 024°11'3 6.1
2017-Sep-17 16:30N 40°35' E 024°08'5 9.1
2017-Sep-17 16:00N 40°32' E 024°03'5 9.1
2017-Sep-17 15:30N 40°29' E 023°59'4 8.8
2017-Sep-17 15:00N 40°26' E 023°55'2 4.6
2017-Sep-17 14:30N 40°24' E 023°54'0 0.0
2017-Sep-17 14:00N 40°24' E 023°54'0 0.0
2017-Sep-17 13:30N 40°24' E 023°54'0 0.0
2017-Sep-17 13:00N 40°24' E 023°54'0 0.0
2017-Sep-17 12:30N 40°24' E 023°54'0 0.0
2017-Sep-17 12:00N 40°24' E 023°54'0 0.0
2017-Sep-17 11:30N 40°24' E 023°54'0 0.0
2017-Sep-17 11:00N 40°24' E 023°54'0 0.0
2017-Sep-17 10:30N 40°24' E 023°54'0 0.0
2017-Sep-17 10:00N 40°24' E 023°54'0 0.0
2017-Sep-17 09:30N 40°24' E 023°54'0 0.0
2017-Sep-17 09:00N 40°24' E 023°54'0 0.0
2017-Sep-17 08:30N 40°24' E 023°54'0 0.0
2017-Sep-17 08:00N 40°24' E 023°54'0 0.0
2017-Sep-17 07:24N 40°24' E 023°54'0 0.0
2017-Sep-17 06:59N 40°24' E 023°54'0 0.0
2017-Sep-17 06:30N 40°24' E 023°54'0 0.0
2017-Sep-17 06:00N 40°24' E 023°54'0 0.0
2017-Sep-17 05:30N 40°24' E 023°54'0 0.0
2017-Sep-17 04:57N 40°24' E 023°54'0 0.0
2017-Sep-17 04:30N 40°24' E 023°54'0 0.3
2017-Sep-17 04:00N 40°24' E 023°53'5 9.0
2017-Sep-17 03:30N 40°27' E 023°58'4 7.5
2017-Sep-17 03:00N 40°26' E 024°03'2 3.3
2017-Sep-17 02:30N 40°25' E 024°05'0 0.2
2017-Sep-17 02:00N 40°25' E 024°05'0 0.3
2017-Sep-17 01:30N 40°25' E 024°05'0 0.6
2017-Sep-17 01:00N 40°25' E 024°05'0 0.8
2017-Sep-17 00:30N 40°25' E 024°05'0 0.5
2017-Sep-16 23:57N 40°24' E 024°05'0 0.4
2017-Sep-16 23:30N 40°24' E 024°05'0 0.9
2017-Sep-16 23:00N 40°25' E 024°05'0 0.3
2017-Sep-16 22:30N 40°25' E 024°05'0 0.1
2017-Sep-16 22:00N 40°25' E 024°05'0 0.8
2017-Sep-16 21:30N 40°24' E 024°05'0 0.1
2017-Sep-16 21:00N 40°24' E 024°05'0 0.2
2017-Sep-16 20:30N 40°24' E 024°05'1 1.1
2017-Sep-16 20:00N 40°24' E 024°05'0 0.3
2017-Sep-16 19:30N 40°24' E 024°05'0 0.9
2017-Sep-16 19:00N 40°24' E 024°06'0 0.8
2017-Sep-16 18:30N 40°25' E 024°06'3 5.1
2017-Sep-16 18:00N 40°26' E 024°09'2 4.1
2017-Sep-16 17:30N 40°26' E 024°06'1 2.8
2017-Sep-16 17:00N 40°27' E 024°04'4 7.8
2017-Sep-16 16:30N 40°27' E 023°59'4 8.8
2017-Sep-16 16:00N 40°24' E 023°55'1 2.2
2017-Sep-16 15:30N 40°24' E 023°54'0 0.0
2017-Sep-16 15:00N 40°24' E 023°54'0 0.0
2017-Sep-16 14:30N 40°24' E 023°54'0 0.0
2017-Sep-16 14:00N 40°24' E 023°54'0 0.0
2017-Sep-16 13:30N 40°24' E 023°54'0 0.0
2017-Sep-16 13:00N 40°24' E 023°54'0 0.0
2017-Sep-16 12:30N 40°24' E 023°54'0 0.0
2017-Sep-16 12:00N 40°24' E 023°54'0 0.0
2017-Sep-16 11:30N 40°24' E 023°54'0 0.0
2017-Sep-16 11:00N 40°24' E 023°54'0 0.0
2017-Sep-16 10:30N 40°24' E 023°54'0 0.0
2017-Sep-16 10:00N 40°24' E 023°54'0 0.0
2017-Sep-16 08:31N 40°24' E 023°54'0 0.0
2017-Sep-16 08:30N 40°24' E 023°54'0 0.0
2017-Sep-16 06:12N 40°24' E 023°54'0 0.0
2017-Sep-16 06:00N 40°24' E 023°54'0 0.0
2017-Sep-16 04:49N 40°24' E 023°54'0 0.0
2017-Sep-16 04:29N 40°24' E 023°54'0 0.0
2017-Sep-16 03:45N 40°24' E 023°54'0 0.0
2017-Sep-16 03:30N 40°24' E 023°54'0 0.0
2017-Sep-15 23:31N 40°24' E 023°54'0 0.0
2017-Sep-15 23:27N 40°24' E 023°54'0 0.0
2017-Sep-15 23:00N 40°24' E 023°54'0 0.0
2017-Sep-15 22:30N 40°24' E 023°54'2 4.8
2017-Sep-15 22:00N 40°25' E 023°56'4 8.4
2017-Sep-15 21:30N 40°28' E 024°00'4 7.9
2017-Sep-15 21:00N 40°26' E 024°05'0 0.1
2017-Sep-15 20:30N 40°27' E 024°05'0 0.1
2017-Sep-15 20:00N 40°27' E 024°05'0 0.2
2017-Sep-15 19:30N 40°26' E 024°06'0 0.4
2017-Sep-15 19:00N 40°26' E 024°05'0 0.1
2017-Sep-15 18:08N 40°26' E 024°06'0 2.1
2017-Sep-15 18:00N 40°26' E 024°05'1 1.1
2017-Sep-15 17:30N 40°26' E 024°05'1 2.5
2017-Sep-15 17:00N 40°27' E 024°03'3 6.8
2017-Sep-15 16:30N 40°27' E 023°59'5 9.6
2017-Sep-15 16:00N 40°24' E 023°54'0 0.9
2017-Sep-15 15:30N 40°24' E 023°54'0 0.0
2017-Sep-15 15:00N 40°24' E 023°54'0 0.0
2017-Sep-15 14:30N 40°24' E 023°54'0 0.0
2017-Sep-15 14:00N 40°24' E 023°54'0 0.0
2017-Sep-15 13:30N 40°24' E 023°54'0 0.0
2017-Sep-15 13:00N 40°24' E 023°54'0 0.0
2017-Sep-15 12:30N 40°24' E 023°54'0 0.0
2017-Sep-15 12:00N 40°24' E 023°54'0 0.0
2017-Sep-15 11:30N 40°24' E 023°54'0 0.0
2017-Sep-15 11:00N 40°24' E 023°54'0 0.0
2017-Sep-15 10:30N 40°24' E 023°54'0 0.0
2017-Sep-15 10:00N 40°24' E 023°54'0 0.0
2017-Sep-15 09:30N 40°24' E 023°54'0 0.0
2017-Sep-15 08:47N 40°24' E 023°54'0 0.0
2017-Sep-15 08:29N 40°24' E 023°54'0 0.0
2017-Sep-15 06:46N 40°24' E 023°54'0 0.0
2017-Sep-15 06:28N 40°24' E 023°54'0 0.0
2017-Sep-15 04:48N 40°24' E 023°54'0 0.0
2017-Sep-15 03:21N 40°24' E 023°54'0 0.0
2017-Sep-15 02:22N 40°24' E 023°54'0 0.0
2017-Sep-15 01:57N 40°24' E 023°54'0 0.0
2017-Sep-15 01:27N 40°24' E 023°54'0 0.0
2017-Sep-15 00:54N 40°24' E 023°54'0 0.0
2017-Sep-15 00:29N 40°24' E 023°54'0 0.0
2017-Sep-14 23:20N 40°24' E 023°54'0 0.0
2017-Sep-14 23:00N 40°24' E 023°54'0 0.0
2017-Sep-14 22:30N 40°24' E 023°54'0 0.1
2017-Sep-14 22:00N 40°24' E 023°54'4 8.3
2017-Sep-14 21:30N 40°27' E 023°56'5 9.3
2017-Sep-14 21:00N 40°32' E 023°59'  

Dump ship's entire track history